TimeMDT,TemperatureF,Dew PointF,Humidity,Sea Level PressureIn,VisibilityMPH,Wind Direction,Wind SpeedMPH,Gust SpeedMPH,PrecipitationIn,Events,Conditions,WindDirDegrees,DateUTC
12:53 AM,30.0,28.0,92,30.19,10.0,NW,5.8,-,N/A,,Clear,320,2013-10-17 06:53:00
1:53 AM,28.0,27.0,96,30.20,10.0,NNW,6.9,-,N/A,,Clear,330,2013-10-17 07:53:00
2:53 AM,27.0,26.1,96,30.21,10.0,NW,5.8,-,N/A,,Clear,320,2013-10-17 08:53:00
3:53 AM,25.0,24.1,96,30.22,10.0,NW,4.6,-,N/A,,Clear,320,2013-10-17 09:53:00
4:53 AM,24.1,23.0,96,30.22,10.0,NW,5.8,-,N/A,,Clear,320,2013-10-17 10:53:00
5:53 AM,23.0,21.0,92,30.24,10.0,NW,6.9,-,N/A,,Clear,310,2013-10-17 11:53:00
6:53 AM,23.0,21.0,92,30.24,10.0,WNW,8.1,-,N/A,,Clear,300,2013-10-17 12:53:00
7:53 AM,23.0,21.0,92,30.24,10.0,NW,8.1,-,N/A,,Clear,320,2013-10-17 13:53:00
8:53 AM,26.1,25.0,96,30.25,10.0,NW,3.5,-,N/A,,Clear,310,2013-10-17 14:53:00
9:53 AM,28.9,27.0,92,30.24,10.0,Calm,Calm,-,N/A,,Clear,0,2013-10-17 15:53:00
10:53 AM,34.0,30.0,85,30.23,10.0,West,5.8,-,N/A,,Clear,280,2013-10-17 16:53:00
11:53 AM,39.9,33.1,77,30.20,10.0,West,6.9,-,N/A,,Clear,260,2013-10-17 17:53:00
12:53 PM,46.9,33.1,59,30.17,10.0,West,9.2,-,N/A,,Clear,270,2013-10-17 18:53:00
1:53 PM,45.0,28.9,53,30.15,10.0,WNW,6.9,-,N/A,,Scattered Clouds,290,2013-10-17 19:53:00
2:53 PM,46.0,28.9,51,30.13,10.0,WNW,8.1,-,N/A,,Scattered Clouds,290,2013-10-17 20:53:00
3:33 PM,39.2,35.6,87,30.08,7.0,WNW,10.4,27.6,0.01,Rain,Light Rain,290,2013-10-17 21:33:00
3:53 PM,39.9,35.1,83,30.15,10.0,West,10.4,-,0.01,Rain,Light Rain,280,2013-10-17 21:53:00
4:53 PM,39.9,36.0,86,30.14,10.0,West,10.4,-,0.00,Rain,Light Rain,270,2013-10-17 22:53:00
5:36 PM,37.4,35.6,93,30.06,7.0,West,11.5,-,0.00,Rain,Light Rain,280,2013-10-17 23:36:00
5:53 PM,37.9,36.0,93,30.14,10.0,West,8.1,-,0.01,,Overcast,260,2013-10-17 23:53:00
6:28 PM,37.4,35.6,93,30.06,10.0,NW,6.9,-,N/A,,Overcast,310,2013-10-18 00:28:00
6:53 PM,37.0,36.0,96,30.16,4.0,NW,6.9,-,0.02,Rain,Rain,320,2013-10-18 00:53:00
7:53 PM,37.0,36.0,96,30.16,10.0,NW,4.6,-,0.01,,Overcast,310,2013-10-18 01:53:00
8:46 PM,35.6,35.6,100,30.07,10.0,NW,5.8,-,N/A,,Mostly Cloudy,310,2013-10-18 02:46:00
8:53 PM,36.0,35.1,97,30.17,10.0,NW,4.6,-,N/A,,Mostly Cloudy,310,2013-10-18 02:53:00
9:53 PM,33.1,33.1,100,30.17,10.0,NW,5.8,-,N/A,,Partly Cloudy,310,2013-10-18 03:53:00
10:53 PM,32.0,32.0,100,30.17,10.0,NW,4.6,-,N/A,,Clear,310,2013-10-18 04:53:00
11:37 PM,33.8,32.0,93,30.09,8.0,NW,4.6,-,N/A,,Overcast,310,2013-10-18 05:37:00
11:53 PM,33.1,33.1,100,30.17,9.0,NW,5.8,-,N/A,,Overcast,310,2013-10-18 05:53:00